Laida — EAVE — position and weather

sailwx.info

Track history (hours):
 
Tides and Currents Weather Stations Pressure Air Temp Water Temp Dewpoint Dewpoint Depression Visibility Wind Speed Wind Dir Waves Ship Positions

Laida

Last reported at 2014-Oct-31 06:33 UTC. Time now 2014-Nov-01 04:53 UTC.
Position N 43°48' W 006°12'.

Length 100 m; draft 6.3 m.

Type: Cargo ship. MMSI: 224509000.

Date/timePositionNaut miles runAvg speedWind from/ knotsBaromVisibWave heightAir tempDewpointWater temp
2014-Oct-31 06:33N 43°48' W 006°12'1111.1
2014-Oct-31 05:32N 43°47' W 005°57'2211.3
2014-Oct-31 03:33N 43°44' W 005°26'103 2.4
2014-Oct-29 09:13N 44°16' W 003°10'7 9.9
2014-Oct-29 08:33N 44°21' W 003°06'12 9.9
2014-Oct-29 07:18N 44°32' W 002°58'811.0
2014-Oct-29 06:33N 44°40' W 002°53'2311.4
2014-Oct-29 04:33N 44°60' W 002°36'2711.2
2014-Oct-29 02:10N 45°23' W 002°18'3211.5
2014-Oct-28 23:23N 45°51' W 001°56'  
2014-Oct-24 14:26N 46°02' W 001°13'10 9.1
2014-Oct-24 13:22N 46°06' W 001°25'12 9.8
2014-Oct-24 12:08N 46°08' W 001°42'2 1.1
2014-Oct-24 10:16N 46°10' W 001°44'2 2.6
2014-Oct-24 09:26N 46°12' W 001°46'126 9.8
2014-Oct-23 20:32N 45°12' W 004°25'1211.8
2014-Oct-23 19:33N 45°07' W 004°40'42110.0
2014-Oct-22 01:32N 39°15' W 009°50'1211.9
2014-Oct-22 00:32N 39°03' W 009°50'1211.4
2014-Oct-21 23:31N 38°51' W 009°51'1111.5
2014-Oct-21 22:32N 38°40' W 009°50'1111.3
2014-Oct-21 21:33N 38°29' W 009°47'1111.3
2014-Oct-21 20:32N 38°18' W 009°44'1111.4
2014-Oct-21 19:33N 38°07' W 009°41'1111.2
2014-Oct-21 18:33N 37°56' W 009°37'1110.9
2014-Oct-21 17:33N 37°45' W 009°34'1010.4
2014-Oct-21 16:33N 37°35' W 009°31'1110.7
2014-Oct-21 15:33N 37°25' W 009°27'1111.0
2014-Oct-21 14:33N 37°14' W 009°24'1111.1
2014-Oct-21 13:32N 37°03' W 009°22'1111.1
2014-Oct-21 12:33N 36°53' W 009°18'1110.9
2014-Oct-21 11:33N 36°45' W 009°09'3711.0
2014-Oct-21 08:13N 36°35' W 008°24'711.4
2014-Oct-21 07:34N 36°33' W 008°15'  
Track history (hours):
 
Tides and Currents Weather Stations Pressure Air Temp Water Temp Dewpoint Dewpoint Depression Visibility Wind Speed Wind Dir Waves Ship Positions

Laida

Last reported at 2014-Oct-31 06:33 UTC. Time now 2014-Nov-01 04:53 UTC.
Position N 43°48' W 006°12'.

Length 100 m; draft 6.3 m.

Type: Cargo ship. MMSI: 224509000.

Date/timePositionNaut miles runAvg speedWind from/ knotsBaromVisibWave heightAir tempDewpointWater temp
2014-Oct-31 06:33N 43°48' W 006°12'1111.1
2014-Oct-31 05:32N 43°47' W 005°57'2211.3
2014-Oct-31 03:33N 43°44' W 005°26'103 2.4
2014-Oct-29 09:13N 44°16' W 003°10'7 9.9
2014-Oct-29 08:33N 44°21' W 003°06'12 9.9
2014-Oct-29 07:18N 44°32' W 002°58'811.0
2014-Oct-29 06:33N 44°40' W 002°53'2311.4
2014-Oct-29 04:33N 44°60' W 002°36'2711.2
2014-Oct-29 02:10N 45°23' W 002°18'3211.5
2014-Oct-28 23:23N 45°51' W 001°56'  
2014-Oct-24 14:26N 46°02' W 001°13'10 9.1
2014-Oct-24 13:22N 46°06' W 001°25'12 9.8
2014-Oct-24 12:08N 46°08' W 001°42'2 1.1
2014-Oct-24 10:16N 46°10' W 001°44'2 2.6
2014-Oct-24 09:26N 46°12' W 001°46'126 9.8
2014-Oct-23 20:32N 45°12' W 004°25'1211.8
2014-Oct-23 19:33N 45°07' W 004°40'42110.0
2014-Oct-22 01:32N 39°15' W 009°50'1211.9
2014-Oct-22 00:32N 39°03' W 009°50'1211.4
2014-Oct-21 23:31N 38°51' W 009°51'1111.5
2014-Oct-21 22:32N 38°40' W 009°50'1111.3
2014-Oct-21 21:33N 38°29' W 009°47'1111.3
2014-Oct-21 20:32N 38°18' W 009°44'1111.4
2014-Oct-21 19:33N 38°07' W 009°41'1111.2
2014-Oct-21 18:33N 37°56' W 009°37'1110.9
2014-Oct-21 17:33N 37°45' W 009°34'1010.4
2014-Oct-21 16:33N 37°35' W 009°31'1110.7
2014-Oct-21 15:33N 37°25' W 009°27'1111.0
2014-Oct-21 14:33N 37°14' W 009°24'1111.1
2014-Oct-21 13:32N 37°03' W 009°22'1111.1
2014-Oct-21 12:33N 36°53' W 009°18'1110.9
2014-Oct-21 11:33N 36°45' W 009°09'3711.0
2014-Oct-21 08:13N 36°35' W 008°24'711.4
2014-Oct-21 07:34N 36°33' W 008°15'  

Dump ship's entire track history